Kevil, Kentucky
Current Conditions -  °F | °C
As of 12:53 PM on Tuesday 27 Jan 2015 (Local Time) from KPAH Reporting Station
Overcast Overcast  
Wind Chill: 41°   Ceiling: 3500
Heat Index: 45°   Visibility: 10mi
Dew Point: 30°   Wind: 8mph
Humidity: 56%   Direction: 10°N
Pressure: 30.12"   Gusts: NA
Location:  37.09°N, 88.89°W
Report Text: KPAH 271853Z 01007KT 10SM OVC035 07/M01 A3012 RMK AO2 SLP199 T00721011
Loading
Personal Weather Stations






























Interactive Weather Map New forecast layout! Learn more

10-Day Weather Forecast

Advertisements
Track Severe Weather on mobile